sensor_id;sensor_type;location;lat;lon;timestamp;temperature;humidity
5779;DHT22;2916;49.798;10.022;2023-02-18T00:01:09;11.10;99.90
5779;DHT22;2916;49.798;10.022;2023-02-18T00:03:36;11.10;99.90
5779;DHT22;2916;49.798;10.022;2023-02-18T00:06:12;11.10;99.90
5779;DHT22;2916;49.798;10.022;2023-02-18T00:08:40;11.10;99.90
5779;DHT22;2916;49.798;10.022;2023-02-18T00:11:07;11.10;99.90
5779;DHT22;2916;49.798;10.022;2023-02-18T00:13:35;11.00;99.90
5779;DHT22;2916;49.798;10.022;2023-02-18T00:16:03;11.00;99.90
5779;DHT22;2916;49.798;10.022;2023-02-18T00:18:30;11.00;99.90
5779;DHT22;2916;49.798;10.022;2023-02-18T00:20:57;11.00;99.90
5779;DHT22;2916;49.798;10.022;2023-02-18T00:23:25;11.00;99.90
5779;DHT22;2916;49.798;10.022;2023-02-18T00:25:59;10.90;99.90
5779;DHT22;2916;49.798;10.022;2023-02-18T00:28:26;10.90;99.90
5779;DHT22;2916;49.798;10.022;2023-02-18T00:30:53;10.90;99.90
5779;DHT22;2916;49.798;10.022;2023-02-18T00:33:20;11.00;99.90
5779;DHT22;2916;49.798;10.022;2023-02-18T00:35:47;10.90;99.90
5779;DHT22;2916;49.798;10.022;2023-02-18T00:38:14;10.90;99.90
5779;DHT22;2916;49.798;10.022;2023-02-18T00:40:43;11.00;99.90
5779;DHT22;2916;49.798;10.022;2023-02-18T00:43:10;10.90;99.90
5779;DHT22;2916;49.798;10.022;2023-02-18T00:45:37;10.90;99.90
5779;DHT22;2916;49.798;10.022;2023-02-18T00:48:04;10.90;99.90
5779;DHT22;2916;49.798;10.022;2023-02-18T00:50:31;10.90;99.90
5779;DHT22;2916;49.798;10.022;2023-02-18T00:52:58;10.90;99.90
5779;DHT22;2916;49.798;10.022;2023-02-18T00:55:25;10.90;99.90
5779;DHT22;2916;49.798;10.022;2023-02-18T00:57:53;10.90;99.90
5779;DHT22;2916;49.798;10.022;2023-02-18T01:00:20;10.90;99.90
5779;DHT22;2916;49.798;10.022;2023-02-18T01:02:47;10.90;99.90
5779;DHT22;2916;49.798;10.022;2023-02-18T01:05:18;10.90;99.90
5779;DHT22;2916;49.798;10.022;2023-02-18T01:07:45;10.90;99.90
5779;DHT22;2916;49.798;10.022;2023-02-18T01:10:12;10.80;99.90
5779;DHT22;2916;49.798;10.022;2023-02-18T01:12:39;10.80;99.90
5779;DHT22;2916;49.798;10.022;2023-02-18T01:15:09;10.80;99.90
5779;DHT22;2916;49.798;10.022;2023-02-18T01:17:36;10.80;99.90
5779;DHT22;2916;49.798;10.022;2023-02-18T01:20:04;10.70;99.90
5779;DHT22;2916;49.798;10.022;2023-02-18T01:22:32;10.70;99.90
5779;DHT22;2916;49.798;10.022;2023-02-18T01:24:59;10.70;99.90
5779;DHT22;2916;49.798;10.022;2023-02-18T01:27:26;10.70;99.90
5779;DHT22;2916;49.798;10.022;2023-02-18T01:29:52;10.70;99.90
5779;DHT22;2916;49.798;10.022;2023-02-18T01:32:21;10.70;99.90
5779;DHT22;2916;49.798;10.022;2023-02-18T01:34:48;10.70;99.90
5779;DHT22;2916;49.798;10.022;2023-02-18T01:37:15;10.70;99.90
5779;DHT22;2916;49.798;10.022;2023-02-18T01:39:41;10.60;99.90
5779;DHT22;2916;49.798;10.022;2023-02-18T01:42:17;10.60;99.90
5779;DHT22;2916;49.798;10.022;2023-02-18T01:44:45;10.60;99.90
5779;DHT22;2916;49.798;10.022;2023-02-18T01:47:13;10.60;99.90
5779;DHT22;2916;49.798;10.022;2023-02-18T01:49:42;10.60;99.90
5779;DHT22;2916;49.798;10.022;2023-02-18T01:52:14;10.70;99.90
5779;DHT22;2916;49.798;10.022;2023-02-18T01:54:44;10.80;99.90
5779;DHT22;2916;49.798;10.022;2023-02-18T01:57:14;10.70;99.90
5779;DHT22;2916;49.798;10.022;2023-02-18T01:59:44;10.60;99.90
5779;DHT22;2916;49.798;10.022;2023-02-18T02:02:13;10.60;99.90
5779;DHT22;2916;49.798;10.022;2023-02-18T02:04:43;10.60;99.90
5779;DHT22;2916;49.798;10.022;2023-02-18T02:07:10;10.60;99.90
5779;DHT22;2916;49.798;10.022;2023-02-18T02:09:39;10.60;99.90
5779;DHT22;2916;49.798;10.022;2023-02-18T02:12:22;10.60;99.90
5779;DHT22;2916;49.798;10.022;2023-02-18T02:15:03;10.60;99.90
5779;DHT22;2916;49.798;10.022;2023-02-18T02:17:36;10.60;99.90
5779;DHT22;2916;49.798;10.022;2023-02-18T02:20:36;10.60;99.90
5779;DHT22;2916;49.798;10.022;2023-02-18T02:23:34;10.70;99.90
5779;DHT22;2916;49.798;10.022;2023-02-18T02:26:35;10.70;99.90
5779;DHT22;2916;49.798;10.022;2023-02-18T02:29:44;10.60;99.90
5779;DHT22;2916;49.798;10.022;2023-02-18T02:32:39;10.60;99.90
5779;DHT22;2916;49.798;10.022;2023-02-18T02:35:14;10.60;99.90
5779;DHT22;2916;49.798;10.022;2023-02-18T02:37:49;10.60;99.90
5779;DHT22;2916;49.798;10.022;2023-02-18T02:40:23;10.70;99.90
5779;DHT22;2916;49.798;10.022;2023-02-18T02:43:01;10.60;99.90
5779;DHT22;2916;49.798;10.022;2023-02-18T02:45:40;10.60;99.90
5779;DHT22;2916;49.798;10.022;2023-02-18T02:48:14;10.60;99.90
5779;DHT22;2916;49.798;10.022;2023-02-18T02:50:47;10.60;99.90
5779;DHT22;2916;49.798;10.022;2023-02-18T02:53:19;10.60;99.90
5779;DHT22;2916;49.798;10.022;2023-02-18T02:55:48;10.60;99.90
5779;DHT22;2916;49.798;10.022;2023-02-18T02:58:17;10.60;99.90
5779;DHT22;2916;49.798;10.022;2023-02-18T03:00:54;10.60;99.90
5779;DHT22;2916;49.798;10.022;2023-02-18T03:04:03;10.60;99.90
5779;DHT22;2916;49.798;10.022;2023-02-18T03:07:00;10.70;99.90
5779;DHT22;2916;49.798;10.022;2023-02-18T03:09:33;10.60;99.90
5779;DHT22;2916;49.798;10.022;2023-02-18T03:12:11;10.60;99.90
5779;DHT22;2916;49.798;10.022;2023-02-18T03:14:45;10.70;99.90
5779;DHT22;2916;49.798;10.022;2023-02-18T03:17:19;10.60;99.90
5779;DHT22;2916;49.798;10.022;2023-02-18T03:19:53;10.70;99.90
5779;DHT22;2916;49.798;10.022;2023-02-18T03:22:26;10.70;99.90
5779;DHT22;2916;49.798;10.022;2023-02-18T03:24:55;10.70;99.90
5779;DHT22;2916;49.798;10.022;2023-02-18T03:27:27;10.70;99.90
5779;DHT22;2916;49.798;10.022;2023-02-18T03:29:58;10.70;99.90
5779;DHT22;2916;49.798;10.022;2023-02-18T03:32:28;10.70;99.90
5779;DHT22;2916;49.798;10.022;2023-02-18T03:35:00;10.70;99.90
5779;DHT22;2916;49.798;10.022;2023-02-18T03:37:31;10.70;99.90
5779;DHT22;2916;49.798;10.022;2023-02-18T03:40:00;10.60;99.90
5779;DHT22;2916;49.798;10.022;2023-02-18T03:42:28;10.70;99.90
5779;DHT22;2916;49.798;10.022;2023-02-18T03:44:56;10.60;99.90
5779;DHT22;2916;49.798;10.022;2023-02-18T03:47:23;10.70;99.90
5779;DHT22;2916;49.798;10.022;2023-02-18T03:49:50;10.60;99.90
5779;DHT22;2916;49.798;10.022;2023-02-18T03:52:17;10.60;99.90
5779;DHT22;2916;49.798;10.022;2023-02-18T03:54:46;10.60;99.90
5779;DHT22;2916;49.798;10.022;2023-02-18T03:57:13;10.50;99.90
5779;DHT22;2916;49.798;10.022;2023-02-18T03:59:39;10.50;99.90
5779;DHT22;2916;49.798;10.022;2023-02-18T04:02:06;10.50;99.90
5779;DHT22;2916;49.798;10.022;2023-02-18T04:04:33;10.50;99.90
5779;DHT22;2916;49.798;10.022;2023-02-18T04:07:00;10.50;99.90
5779;DHT22;2916;49.798;10.022;2023-02-18T04:09:27;10.50;99.90
5779;DHT22;2916;49.798;10.022;2023-02-18T04:11:55;10.50;99.90
5779;DHT22;2916;49.798;10.022;2023-02-18T04:14:23;10.50;99.90
5779;DHT22;2916;49.798;10.022;2023-02-18T04:16:49;10.50;99.90
5779;DHT22;2916;49.798;10.022;2023-02-18T04:19:16;10.40;99.90
5779;DHT22;2916;49.798;10.022;2023-02-18T04:21:43;10.50;99.90
5779;DHT22;2916;49.798;10.022;2023-02-18T04:24:10;10.50;99.90
5779;DHT22;2916;49.798;10.022;2023-02-18T04:26:37;10.50;99.90
5779;DHT22;2916;49.798;10.022;2023-02-18T04:29:05;10.50;99.90
5779;DHT22;2916;49.798;10.022;2023-02-18T04:31:32;10.50;99.90
5779;DHT22;2916;49.798;10.022;2023-02-18T04:33:59;10.50;99.90
5779;DHT22;2916;49.798;10.022;2023-02-18T04:36:26;10.50;99.90
5779;DHT22;2916;49.798;10.022;2023-02-18T04:38:53;10.50;99.90
5779;DHT22;2916;49.798;10.022;2023-02-18T04:41:20;10.50;99.90
5779;DHT22;2916;49.798;10.022;2023-02-18T04:43:47;10.50;99.90
5779;DHT22;2916;49.798;10.022;2023-02-18T04:46:15;10.50;99.90
5779;DHT22;2916;49.798;10.022;2023-02-18T04:48:42;10.50;99.90
5779;DHT22;2916;49.798;10.022;2023-02-18T04:51:09;10.50;99.90
5779;DHT22;2916;49.798;10.022;2023-02-18T04:53:36;10.40;99.90
5779;DHT22;2916;49.798;10.022;2023-02-18T04:56:04;10.50;99.90
5779;DHT22;2916;49.798;10.022;2023-02-18T04:58:30;10.40;99.90
5779;DHT22;2916;49.798;10.022;2023-02-18T05:00:58;10.50;99.90
5779;DHT22;2916;49.798;10.022;2023-02-18T05:03:28;10.40;99.90
5779;DHT22;2916;49.798;10.022;2023-02-18T05:05:56;10.50;99.90
5779;DHT22;2916;49.798;10.022;2023-02-18T05:08:23;10.40;99.90
5779;DHT22;2916;49.798;10.022;2023-02-18T05:10:50;10.50;99.90
5779;DHT22;2916;49.798;10.022;2023-02-18T05:13:16;10.40;99.90
5779;DHT22;2916;49.798;10.022;2023-02-18T05:15:43;10.40;99.90
5779;DHT22;2916;49.798;10.022;2023-02-18T05:18:10;10.40;99.90
5779;DHT22;2916;49.798;10.022;2023-02-18T05:20:39;10.40;99.90
5779;DHT22;2916;49.798;10.022;2023-02-18T05:23:06;10.40;99.90
5779;DHT22;2916;49.798;10.022;2023-02-18T05:25:33;10.40;99.90
5779;DHT22;2916;49.798;10.022;2023-02-18T05:27:59;10.40;99.90
5779;DHT22;2916;49.798;10.022;2023-02-18T05:30:26;10.40;99.90
5779;DHT22;2916;49.798;10.022;2023-02-18T05:32:53;10.40;99.90
5779;DHT22;2916;49.798;10.022;2023-02-18T05:35:20;10.40;99.90
5779;DHT22;2916;49.798;10.022;2023-02-18T05:37:48;10.40;99.90
5779;DHT22;2916;49.798;10.022;2023-02-18T05:40:15;10.40;99.90
5779;DHT22;2916;49.798;10.022;2023-02-18T05:42:43;10.40;99.90
5779;DHT22;2916;49.798;10.022;2023-02-18T05:45:10;10.30;99.90
5779;DHT22;2916;49.798;10.022;2023-02-18T05:47:37;10.40;99.90
5779;DHT22;2916;49.798;10.022;2023-02-18T05:50:05;10.30;99.90
5779;DHT22;2916;49.798;10.022;2023-02-18T05:52:32;10.30;99.90
5779;DHT22;2916;49.798;10.022;2023-02-18T05:55:01;10.40;99.90
5779;DHT22;2916;49.798;10.022;2023-02-18T05:57:28;10.40;99.90
5779;DHT22;2916;49.798;10.022;2023-02-18T05:59:55;10.40;99.90
5779;DHT22;2916;49.798;10.022;2023-02-18T06:02:22;10.40;99.90
5779;DHT22;2916;49.798;10.022;2023-02-18T06:04:49;10.40;99.90
5779;DHT22;2916;49.798;10.022;2023-02-18T06:07:16;10.40;99.90
5779;DHT22;2916;49.798;10.022;2023-02-18T06:09:45;10.40;99.90
5779;DHT22;2916;49.798;10.022;2023-02-18T06:12:13;10.40;99.90
5779;DHT22;2916;49.798;10.022;2023-02-18T06:14:40;10.40;99.90
5779;DHT22;2916;49.798;10.022;2023-02-18T06:17:08;10.40;99.90
5779;DHT22;2916;49.798;10.022;2023-02-18T06:19:35;10.30;99.90
5779;DHT22;2916;49.798;10.022;2023-02-18T06:22:02;10.20;99.90
5779;DHT22;2916;49.798;10.022;2023-02-18T06:24:29;10.30;99.90
5779;DHT22;2916;49.798;10.022;2023-02-18T06:26:56;10.20;99.90
5779;DHT22;2916;49.798;10.022;2023-02-18T06:29:24;10.20;99.90
5779;DHT22;2916;49.798;10.022;2023-02-18T06:31:54;10.20;99.90
5779;DHT22;2916;49.798;10.022;2023-02-18T06:34:21;10.30;99.90
5779;DHT22;2916;49.798;10.022;2023-02-18T06:36:48;10.20;99.90
5779;DHT22;2916;49.798;10.022;2023-02-18T06:39:15;10.20;99.90
5779;DHT22;2916;49.798;10.022;2023-02-18T06:41:42;10.20;99.90
5779;DHT22;2916;49.798;10.022;2023-02-18T06:44:09;10.20;99.90
5779;DHT22;2916;49.798;10.022;2023-02-18T06:46:38;10.20;99.90
5779;DHT22;2916;49.798;10.022;2023-02-18T06:49:05;10.20;99.90
5779;DHT22;2916;49.798;10.022;2023-02-18T06:51:32;10.20;99.90
5779;DHT22;2916;49.798;10.022;2023-02-18T06:53:59;10.20;99.90
5779;DHT22;2916;49.798;10.022;2023-02-18T06:56:26;10.20;99.90
5779;DHT22;2916;49.798;10.022;2023-02-18T06:58:52;10.20;99.90
5779;DHT22;2916;49.798;10.022;2023-02-18T07:01:19;10.20;99.90
5779;DHT22;2916;49.798;10.022;2023-02-18T07:03:48;10.20;99.90
5779;DHT22;2916;49.798;10.022;2023-02-18T07:06:15;10.20;99.90
5779;DHT22;2916;49.798;10.022;2023-02-18T07:08:42;10.20;99.90
5779;DHT22;2916;49.798;10.022;2023-02-18T07:11:09;10.20;99.90
5779;DHT22;2916;49.798;10.022;2023-02-18T07:13:36;10.20;99.90
5779;DHT22;2916;49.798;10.022;2023-02-18T07:16:03;10.30;99.90
5779;DHT22;2916;49.798;10.022;2023-02-18T07:18:30;10.30;99.90
5779;DHT22;2916;49.798;10.022;2023-02-18T07:20:58;10.30;99.90
5779;DHT22;2916;49.798;10.022;2023-02-18T07:23:25;10.40;99.90
5779;DHT22;2916;49.798;10.022;2023-02-18T07:26:01;10.40;99.90
5779;DHT22;2916;49.798;10.022;2023-02-18T07:28:28;10.30;99.90
5779;DHT22;2916;49.798;10.022;2023-02-18T07:30:54;10.40;99.90
5779;DHT22;2916;49.798;10.022;2023-02-18T07:33:21;10.40;99.90
5779;DHT22;2916;49.798;10.022;2023-02-18T07:35:52;10.40;99.90
5779;DHT22;2916;49.798;10.022;2023-02-18T07:38:21;10.40;99.90
5779;DHT22;2916;49.798;10.022;2023-02-18T07:40:48;10.40;99.90
5779;DHT22;2916;49.798;10.022;2023-02-18T07:43:15;10.40;99.90
5779;DHT22;2916;49.798;10.022;2023-02-18T07:45:42;10.40;99.90
5779;DHT22;2916;49.798;10.022;2023-02-18T07:48:09;10.40;99.90
5779;DHT22;2916;49.798;10.022;2023-02-18T07:50:38;10.40;99.90
5779;DHT22;2916;49.798;10.022;2023-02-18T07:53:06;10.40;99.90
5779;DHT22;2916;49.798;10.022;2023-02-18T07:55:35;10.60;99.90
5779;DHT22;2916;49.798;10.022;2023-02-18T07:58:18;10.60;99.90
5779;DHT22;2916;49.798;10.022;2023-02-18T08:00:46;10.70;99.90
5779;DHT22;2916;49.798;10.022;2023-02-18T08:03:14;10.70;99.90
5779;DHT22;2916;49.798;10.022;2023-02-18T08:05:41;10.80;99.90
5779;DHT22;2916;49.798;10.022;2023-02-18T08:08:12;10.90;99.90
5779;DHT22;2916;49.798;10.022;2023-02-18T08:10:41;10.90;99.90
5779;DHT22;2916;49.798;10.022;2023-02-18T08:13:09;10.80;99.90
5779;DHT22;2916;49.798;10.022;2023-02-18T08:15:36;10.90;99.90
5779;DHT22;2916;49.798;10.022;2023-02-18T08:18:04;10.90;99.90
5779;DHT22;2916;49.798;10.022;2023-02-18T08:20:31;11.00;99.90
5779;DHT22;2916;49.798;10.022;2023-02-18T08:23:01;11.20;99.90
5779;DHT22;2916;49.798;10.022;2023-02-18T08:25:28;11.20;99.90
5779;DHT22;2916;49.798;10.022;2023-02-18T08:27:57;11.30;99.90
5779;DHT22;2916;49.798;10.022;2023-02-18T08:30:24;11.40;99.90
5779;DHT22;2916;49.798;10.022;2023-02-18T08:32:51;11.40;99.90
5779;DHT22;2916;49.798;10.022;2023-02-18T08:35:18;11.50;99.90
5779;DHT22;2916;49.798;10.022;2023-02-18T08:37:45;11.50;99.90
5779;DHT22;2916;49.798;10.022;2023-02-18T08:40:12;11.50;99.90
5779;DHT22;2916;49.798;10.022;2023-02-18T08:42:39;11.50;99.90
5779;DHT22;2916;49.798;10.022;2023-02-18T08:45:08;11.50;99.90
5779;DHT22;2916;49.798;10.022;2023-02-18T08:47:35;11.50;99.90
5779;DHT22;2916;49.798;10.022;2023-02-18T08:50:02;11.50;99.90
5779;DHT22;2916;49.798;10.022;2023-02-18T08:52:30;11.40;99.90
5779;DHT22;2916;49.798;10.022;2023-02-18T08:54:57;11.40;99.90
5779;DHT22;2916;49.798;10.022;2023-02-18T08:57:25;11.40;99.90
5779;DHT22;2916;49.798;10.022;2023-02-18T08:59:52;11.40;99.90
5779;DHT22;2916;49.798;10.022;2023-02-18T09:02:21;11.40;99.90
5779;DHT22;2916;49.798;10.022;2023-02-18T09:04:48;11.40;99.90
5779;DHT22;2916;49.798;10.022;2023-02-18T09:07:15;11.40;99.90
5779;DHT22;2916;49.798;10.022;2023-02-18T09:09:42;11.40;99.90
5779;DHT22;2916;49.798;10.022;2023-02-18T09:12:08;11.40;99.90
5779;DHT22;2916;49.798;10.022;2023-02-18T09:14:35;11.40;99.90
5779;DHT22;2916;49.798;10.022;2023-02-18T09:17:02;11.50;99.90
5779;DHT22;2916;49.798;10.022;2023-02-18T09:19:31;11.40;99.90
5779;DHT22;2916;49.798;10.022;2023-02-18T09:21:58;11.40;99.90
5779;DHT22;2916;49.798;10.022;2023-02-18T09:24:24;11.40;99.90
5779;DHT22;2916;49.798;10.022;2023-02-18T09:26:51;11.40;99.90
5779;DHT22;2916;49.798;10.022;2023-02-18T09:29:18;11.50;99.90
5779;DHT22;2916;49.798;10.022;2023-02-18T09:31:45;11.40;99.90
5779;DHT22;2916;49.798;10.022;2023-02-18T09:34:12;11.50;99.90
5779;DHT22;2916;49.798;10.022;2023-02-18T09:36:41;11.40;99.90
5779;DHT22;2916;49.798;10.022;2023-02-18T09:39:07;11.50;99.90
5779;DHT22;2916;49.798;10.022;2023-02-18T09:41:40;11.50;99.90
5779;DHT22;2916;49.798;10.022;2023-02-18T09:44:12;11.50;99.90
5779;DHT22;2916;49.798;10.022;2023-02-18T09:46:46;11.50;99.90
5779;DHT22;2916;49.798;10.022;2023-02-18T09:49:16;11.50;99.90
5779;DHT22;2916;49.798;10.022;2023-02-18T09:51:46;11.60;99.90
5779;DHT22;2916;49.798;10.022;2023-02-18T09:54:16;11.60;99.90
5779;DHT22;2916;49.798;10.022;2023-02-18T09:56:44;11.70;99.90
5779;DHT22;2916;49.798;10.022;2023-02-18T09:59:16;11.70;99.90
5779;DHT22;2916;49.798;10.022;2023-02-18T10:01:45;11.80;99.90
5779;DHT22;2916;49.798;10.022;2023-02-18T10:04:16;11.80;99.90
5779;DHT22;2916;49.798;10.022;2023-02-18T10:06:48;11.90;99.90
5779;DHT22;2916;49.798;10.022;2023-02-18T10:09:20;12.00;99.90
5779;DHT22;2916;49.798;10.022;2023-02-18T10:11:49;12.10;99.90
5779;DHT22;2916;49.798;10.022;2023-02-18T10:14:18;12.20;99.90
5779;DHT22;2916;49.798;10.022;2023-02-18T10:16:46;12.30;99.90
5779;DHT22;2916;49.798;10.022;2023-02-18T10:19:21;12.30;99.90
5779;DHT22;2916;49.798;10.022;2023-02-18T10:21:51;12.40;99.90
5779;DHT22;2916;49.798;10.022;2023-02-18T10:24:25;12.40;99.90
5779;DHT22;2916;49.798;10.022;2023-02-18T10:26:53;12.50;99.90
5779;DHT22;2916;49.798;10.022;2023-02-18T10:29:21;12.60;99.90
5779;DHT22;2916;49.798;10.022;2023-02-18T10:31:53;12.60;99.90
5779;DHT22;2916;49.798;10.022;2023-02-18T10:34:29;12.60;99.90
5779;DHT22;2916;49.798;10.022;2023-02-18T10:37:02;12.60;99.90
5779;DHT22;2916;49.798;10.022;2023-02-18T10:39:50;12.60;99.90
5779;DHT22;2916;49.798;10.022;2023-02-18T10:42:29;12.60;99.90
5779;DHT22;2916;49.798;10.022;2023-02-18T10:45:09;12.60;99.90
5779;DHT22;2916;49.798;10.022;2023-02-18T10:47:39;12.60;99.90
5779;DHT22;2916;49.798;10.022;2023-02-18T10:50:10;12.60;99.90
5779;DHT22;2916;49.798;10.022;2023-02-18T10:52:42;12.60;99.90
5779;DHT22;2916;49.798;10.022;2023-02-18T10:55:11;12.60;99.90
5779;DHT22;2916;49.798;10.022;2023-02-18T10:57:47;12.60;99.90
5779;DHT22;2916;49.798;10.022;2023-02-18T11:00:18;12.60;99.90
5779;DHT22;2916;49.798;10.022;2023-02-18T11:02:45;12.70;99.90
5779;DHT22;2916;49.798;10.022;2023-02-18T11:05:22;12.70;99.90
5779;DHT22;2916;49.798;10.022;2023-02-18T11:07:55;12.70;99.90
5779;DHT22;2916;49.798;10.022;2023-02-18T11:10:24;12.70;99.90
5779;DHT22;2916;49.798;10.022;2023-02-18T11:12:55;12.70;99.90
5779;DHT22;2916;49.798;10.022;2023-02-18T11:15:24;12.70;99.90
5779;DHT22;2916;49.798;10.022;2023-02-18T11:17:53;12.80;99.90
5779;DHT22;2916;49.798;10.022;2023-02-18T11:20:27;12.90;99.90
5779;DHT22;2916;49.798;10.022;2023-02-18T11:23:16;12.90;99.90
5779;DHT22;2916;49.798;10.022;2023-02-18T11:25:54;12.90;99.90
5779;DHT22;2916;49.798;10.022;2023-02-18T11:28:32;12.90;99.90
5779;DHT22;2916;49.798;10.022;2023-02-18T11:31:01;12.80;99.90
5779;DHT22;2916;49.798;10.022;2023-02-18T11:33:33;12.90;99.90
5779;DHT22;2916;49.798;10.022;2023-02-18T11:36:04;12.90;99.90
5779;DHT22;2916;49.798;10.022;2023-02-18T11:38:42;12.90;99.90
5779;DHT22;2916;49.798;10.022;2023-02-18T11:41:15;12.90;99.90
5779;DHT22;2916;49.798;10.022;2023-02-18T11:43:46;12.80;99.90
5779;DHT22;2916;49.798;10.022;2023-02-18T11:46:16;12.90;99.90
5779;DHT22;2916;49.798;10.022;2023-02-18T11:48:43;12.90;99.90
5779;DHT22;2916;49.798;10.022;2023-02-18T11:51:16;12.90;99.90
5779;DHT22;2916;49.798;10.022;2023-02-18T11:53:56;13.10;99.90
5779;DHT22;2916;49.798;10.022;2023-02-18T11:56:25;13.00;94.50
5779;DHT22;2916;49.798;10.022;2023-02-18T11:58:53;13.10;96.00
5779;DHT22;2916;49.798;10.022;2023-02-18T12:01:28;13.10;92.90
5779;DHT22;2916;49.798;10.022;2023-02-18T12:04:00;13.10;94.90
5779;DHT22;2916;49.798;10.022;2023-02-18T12:06:33;13.10;91.00
5779;DHT22;2916;49.798;10.022;2023-02-18T12:09:06;13.00;83.60
5779;DHT22;2916;49.798;10.022;2023-02-18T12:11:39;13.00;92.80
5779;DHT22;2916;49.798;10.022;2023-02-18T12:14:13;13.00;92.20
5779;DHT22;2916;49.798;10.022;2023-02-18T12:16:47;13.00;91.20
5779;DHT22;2916;49.798;10.022;2023-02-18T12:19:41;12.80;91.60
5779;DHT22;2916;49.798;10.022;2023-02-18T12:22:17;12.80;89.40
5779;DHT22;2916;49.798;10.022;2023-02-18T12:25:00;12.80;86.20
5779;DHT22;2916;49.798;10.022;2023-02-18T12:27:31;12.70;83.10
5779;DHT22;2916;49.798;10.022;2023-02-18T12:33:07;12.80;80.40
5779;DHT22;2916;49.798;10.022;2023-02-18T12:35:51;12.80;81.20
5779;DHT22;2916;49.798;10.022;2023-02-18T12:38:47;12.80;72.30
5779;DHT22;2916;49.798;10.022;2023-02-18T12:41:36;12.70;72.90
5779;DHT22;2916;49.798;10.022;2023-02-18T12:44:18;12.70;75.90
5779;DHT22;2916;49.798;10.022;2023-02-18T12:47:05;12.70;60.90
5779;DHT22;2916;49.798;10.022;2023-02-18T12:49:58;12.80;71.70
5779;DHT22;2916;49.798;10.022;2023-02-18T12:52:34;12.80;67.70
5779;DHT22;2916;49.798;10.022;2023-02-18T12:58:27;12.80;53.50
5779;DHT22;2916;49.798;10.022;2023-02-18T13:01:22;12.80;52.00
5779;DHT22;2916;49.798;10.022;2023-02-18T13:04:18;12.80;54.10
5779;DHT22;2916;49.798;10.022;2023-02-18T13:10:30;12.70;59.30
5779;DHT22;2916;49.798;10.022;2023-02-18T13:13:07;12.70;53.80
5779;DHT22;2916;49.798;10.022;2023-02-18T13:15:39;12.70;49.20
5779;DHT22;2916;49.798;10.022;2023-02-18T13:18:11;12.70;49.00
5779;DHT22;2916;49.798;10.022;2023-02-18T13:20:44;12.80;49.30
5779;DHT22;2916;49.798;10.022;2023-02-18T13:23:17;12.80;48.70
5779;DHT22;2916;49.798;10.022;2023-02-18T13:25:46;12.80;48.50
5779;DHT22;2916;49.798;10.022;2023-02-18T13:28:20;12.90;52.40
5779;DHT22;2916;49.798;10.022;2023-02-18T13:31:00;12.80;48.60
5779;DHT22;2916;49.798;10.022;2023-02-18T13:33:37;12.90;52.20
5779;DHT22;2916;49.798;10.022;2023-02-18T13:36:10;12.80;49.50
5779;DHT22;2916;49.798;10.022;2023-02-18T13:38:57;12.80;52.80
5779;DHT22;2916;49.798;10.022;2023-02-18T13:41:26;12.70;48.30
5779;DHT22;2916;49.798;10.022;2023-02-18T13:43:53;12.70;53.90
5779;DHT22;2916;49.798;10.022;2023-02-18T13:46:22;12.70;56.90
5779;DHT22;2916;49.798;10.022;2023-02-18T13:48:50;12.70;56.30
5779;DHT22;2916;49.798;10.022;2023-02-18T13:51:27;12.70;57.30
5779;DHT22;2916;49.798;10.022;2023-02-18T13:54:00;12.70;55.10
5779;DHT22;2916;49.798;10.022;2023-02-18T13:56:30;12.70;56.60
5779;DHT22;2916;49.798;10.022;2023-02-18T13:59:00;12.70;58.60
5779;DHT22;2916;49.798;10.022;2023-02-18T14:01:42;12.60;54.20
5779;DHT22;2916;49.798;10.022;2023-02-18T14:07:36;12.50;61.90
5779;DHT22;2916;49.798;10.022;2023-02-18T14:10:09;12.50;63.40
5779;DHT22;2916;49.798;10.022;2023-02-18T14:15:56;12.50;71.70
5779;DHT22;2916;49.798;10.022;2023-02-18T14:21:22;12.30;84.70
5779;DHT22;2916;49.798;10.022;2023-02-18T14:24:04;12.30;92.90
5779;DHT22;2916;49.798;10.022;2023-02-18T14:26:36;12.20;94.30
5779;DHT22;2916;49.798;10.022;2023-02-18T14:29:13;12.10;96.30
5779;DHT22;2916;49.798;10.022;2023-02-18T14:31:45;12.20;99.90
5779;DHT22;2916;49.798;10.022;2023-02-18T14:43:04;12.10;99.90
5779;DHT22;2916;49.798;10.022;2023-02-18T14:45:46;12.10;99.90
5779;DHT22;2916;49.798;10.022;2023-02-18T14:48:37;12.10;99.90
5779;DHT22;2916;49.798;10.022;2023-02-18T14:51:07;12.20;99.90
5779;DHT22;2916;49.798;10.022;2023-02-18T14:53:41;12.10;99.90
5779;DHT22;2916;49.798;10.022;2023-02-18T14:56:09;12.10;99.90
5779;DHT22;2916;49.798;10.022;2023-02-18T14:58:41;12.20;99.90
5779;DHT22;2916;49.798;10.022;2023-02-18T15:01:16;12.10;99.90
5779;DHT22;2916;49.798;10.022;2023-02-18T15:03:45;12.20;99.90
5779;DHT22;2916;49.798;10.022;2023-02-18T15:06:28;12.10;99.90
5779;DHT22;2916;49.798;10.022;2023-02-18T15:08:57;12.10;99.90
5779;DHT22;2916;49.798;10.022;2023-02-18T15:11:36;12.10;99.90
5779;DHT22;2916;49.798;10.022;2023-02-18T15:14:10;12.10;99.90
5779;DHT22;2916;49.798;10.022;2023-02-18T15:16:40;12.10;99.90
5779;DHT22;2916;49.798;10.022;2023-02-18T15:19:12;12.00;99.90
5779;DHT22;2916;49.798;10.022;2023-02-18T15:21:42;12.00;99.90
5779;DHT22;2916;49.798;10.022;2023-02-18T15:24:22;11.90;99.90
5779;DHT22;2916;49.798;10.022;2023-02-18T15:26:50;11.90;99.90
5779;DHT22;2916;49.798;10.022;2023-02-18T15:29:20;11.90;99.90
5779;DHT22;2916;49.798;10.022;2023-02-18T15:31:47;11.90;99.90
5779;DHT22;2916;49.798;10.022;2023-02-18T15:34:30;11.90;99.90
5779;DHT22;2916;49.798;10.022;2023-02-18T15:37:00;11.80;99.90
5779;DHT22;2916;49.798;10.022;2023-02-18T15:39:28;11.80;99.90
5779;DHT22;2916;49.798;10.022;2023-02-18T15:41:58;11.80;99.90
5779;DHT22;2916;49.798;10.022;2023-02-18T15:44:30;11.80;99.90
5779;DHT22;2916;49.798;10.022;2023-02-18T15:46:59;11.70;99.90
5779;DHT22;2916;49.798;10.022;2023-02-18T15:49:27;11.70;99.90
5779;DHT22;2916;49.798;10.022;2023-02-18T15:51:57;11.70;99.90
5779;DHT22;2916;49.798;10.022;2023-02-18T15:54:25;11.70;99.90
5779;DHT22;2916;49.798;10.022;2023-02-18T15:56:55;11.70;99.90
5779;DHT22;2916;49.798;10.022;2023-02-18T15:59:25;11.70;99.90
5779;DHT22;2916;49.798;10.022;2023-02-18T16:01:54;11.60;99.90
5779;DHT22;2916;49.798;10.022;2023-02-18T16:04:27;11.50;99.90
5779;DHT22;2916;49.798;10.022;2023-02-18T16:06:54;11.50;99.90
5779;DHT22;2916;49.798;10.022;2023-02-18T16:09:24;11.40;99.90
5779;DHT22;2916;49.798;10.022;2023-02-18T16:11:55;11.40;99.90
5779;DHT22;2916;49.798;10.022;2023-02-18T16:14:27;11.40;99.90
5779;DHT22;2916;49.798;10.022;2023-02-18T16:17:05;11.40;99.90
5779;DHT22;2916;49.798;10.022;2023-02-18T16:19:33;11.30;99.90
5779;DHT22;2916;49.798;10.022;2023-02-18T16:22:03;11.20;99.90
5779;DHT22;2916;49.798;10.022;2023-02-18T16:24:39;11.20;99.90
5779;DHT22;2916;49.798;10.022;2023-02-18T16:27:14;11.10;99.90
5779;DHT22;2916;49.798;10.022;2023-02-18T16:29:42;11.20;99.90
5779;DHT22;2916;49.798;10.022;2023-02-18T16:32:09;11.10;99.90
5779;DHT22;2916;49.798;10.022;2023-02-18T16:34:36;11.10;99.90
5779;DHT22;2916;49.798;10.022;2023-02-18T16:37:03;11.10;99.90